createdAt,value
2019-03-30T00:00:20.547Z,95796.56
2019-03-30T00:02:47.280Z,95791.50
2019-03-30T00:05:13.885Z,95792.78
2019-03-30T00:07:40.575Z,95790.25
2019-03-30T00:10:07.214Z,95787.33
2019-03-30T00:12:33.850Z,95783.52
2019-03-30T00:15:00.496Z,95784.45
2019-03-30T00:17:27.180Z,95786.70
2019-03-30T00:19:53.825Z,95786.30
2019-03-30T00:22:20.472Z,95783.90
2019-03-30T00:24:47.194Z,95780.61
2019-03-30T00:27:13.741Z,95787.16
2019-03-30T00:29:40.433Z,95786.78
2019-03-30T00:32:07.073Z,95787.55
2019-03-30T00:34:33.704Z,95775.44
2019-03-30T00:37:00.405Z,95770.90
2019-03-30T00:39:27.038Z,95767.74
2019-03-30T00:41:53.721Z,95765.97
2019-03-30T00:44:20.411Z,95771.00
2019-03-30T00:46:48.166Z,95764.96
2019-03-30T00:49:13.700Z,95771.38
2019-03-30T00:51:40.384Z,95765.83
2019-03-30T00:54:07.023Z,95767.11
2019-03-30T00:56:33.668Z,95774.78
2019-03-30T00:59:00.352Z,95768.22
2019-03-30T01:01:27.032Z,95762.30
2019-03-30T01:03:53.714Z,95769.61
2019-03-30T01:06:20.353Z,95768.50
2019-03-30T01:08:47.256Z,95761.15
2019-03-30T01:11:13.699Z,95767.59
2019-03-30T01:13:40.326Z,95764.44
2019-03-30T01:16:06.975Z,95764.06
2019-03-30T01:18:33.642Z,95758.23
2019-03-30T01:21:00.316Z,95764.16
2019-03-30T01:23:27.044Z,95766.83
2019-03-30T01:25:53.680Z,95768.22
2019-03-30T01:28:20.410Z,95773.25
2019-03-30T01:30:47.190Z,95767.70
2019-03-30T01:33:13.717Z,95771.61
2019-03-30T01:35:40.374Z,95772.23
2019-03-30T01:38:07.042Z,95774.25
2019-03-30T01:40:33.674Z,95776.40
2019-03-30T01:43:00.316Z,95774.48
2019-03-30T01:45:26.990Z,95777.64
2019-03-30T01:47:53.694Z,95779.27
2019-03-30T01:50:20.337Z,95772.97
2019-03-30T01:52:47.237Z,95775.00
2019-03-30T01:55:13.661Z,95778.41
2019-03-30T01:57:40.302Z,95784.44
2019-03-30T02:00:06.953Z,95781.42
2019-03-30T02:02:33.633Z,95780.13
2019-03-30T02:05:00.385Z,95777.87
2019-03-30T02:07:26.963Z,95774.97
2019-03-30T02:09:53.620Z,95773.95
2019-03-30T02:12:20.327Z,95762.73
2019-03-30T02:14:46.940Z,95768.17
2019-03-30T02:17:13.585Z,95761.09
2019-03-30T02:19:40.231Z,95760.09
2019-03-30T02:22:06.866Z,95767.40
2019-03-30T02:24:33.526Z,95767.50
2019-03-30T02:27:00.173Z,95763.72
2019-03-30T02:29:26.817Z,95761.81
2019-03-30T02:31:53.501Z,95770.03
2019-03-30T02:34:20.135Z,95765.97
2019-03-30T02:36:46.785Z,95763.34
2019-03-30T02:39:13.432Z,95771.14
2019-03-30T02:41:40.064Z,95767.98
2019-03-30T02:44:06.740Z,95768.75
2019-03-30T02:46:33.380Z,95767.49
2019-03-30T02:49:00.023Z,95766.83
2019-03-30T02:51:26.656Z,95762.80
2019-03-30T02:53:53.334Z,95766.07
2019-03-30T02:56:19.970Z,95763.80
2019-03-30T02:58:46.632Z,95766.07
2019-03-30T03:01:13.309Z,95768.45
2019-03-30T03:03:39.946Z,95765.53
2019-03-30T03:06:06.671Z,95765.81
2019-03-30T03:08:33.362Z,95767.05
2019-03-30T03:10:59.993Z,95770.55
2019-03-30T03:13:26.641Z,95771.31
2019-03-30T03:15:53.323Z,95769.68
2019-03-30T03:18:19.964Z,95766.05
2019-03-30T03:20:46.653Z,95768.28
2019-03-30T03:23:13.286Z,95769.02
2019-03-30T03:25:39.942Z,95764.63
2019-03-30T03:28:06.585Z,95769.28
2019-03-30T03:30:33.224Z,95771.63
2019-03-30T03:32:59.924Z,95772.29
2019-03-30T03:35:26.576Z,95777.94
2019-03-30T03:37:53.239Z,95776.06
2019-03-30T03:40:19.880Z,95773.78
2019-03-30T03:42:46.562Z,95771.87
2019-03-30T03:45:13.229Z,95777.41
2019-03-30T03:47:39.890Z,95775.53
2019-03-30T03:50:06.525Z,95779.31
2019-03-30T03:52:33.224Z,95778.55
2019-03-30T03:54:59.860Z,95778.17
2019-03-30T03:57:26.541Z,95779.03
2019-03-30T03:59:53.240Z,95782.70
2019-03-30T04:02:19.885Z,95787.94
2019-03-30T04:04:47.674Z,95785.70
2019-03-30T04:07:13.211Z,95794.77
2019-03-30T04:09:39.902Z,95788.81
2019-03-30T04:12:06.537Z,95795.39
2019-03-30T04:14:33.175Z,95797.46
2019-03-30T04:16:59.825Z,95803.56
2019-03-30T04:19:26.500Z,95805.63
2019-03-30T04:21:53.157Z,95812.47
2019-03-30T04:24:19.797Z,95805.00
2019-03-30T04:26:46.454Z,95810.70
2019-03-30T04:29:13.138Z,95808.30
2019-03-30T04:31:39.775Z,95815.32
2019-03-30T04:34:07.394Z,95808.67
2019-03-30T04:36:36.825Z,95823.79
2019-03-30T04:39:03.476Z,95816.03
2019-03-30T04:41:30.121Z,95817.24
2019-03-30T04:43:56.800Z,95818.80
2019-03-30T04:46:23.450Z,95809.31
2019-03-30T04:48:50.195Z,95810.98
2019-03-30T04:51:16.797Z,95815.66
2019-03-30T04:53:43.453Z,95817.58
2019-03-30T04:56:10.101Z,95813.89
2019-03-30T04:58:36.738Z,95824.75
2019-03-30T05:01:03.411Z,95823.34
2019-03-30T05:03:30.096Z,95818.97
2019-03-30T05:05:56.750Z,95818.27
2019-03-30T05:08:23.398Z,95819.59
2019-03-30T05:10:50.050Z,95819.65
2019-03-30T05:13:16.684Z,95825.59
2019-03-30T05:15:43.359Z,95822.25
2019-03-30T05:18:10.048Z,95825.95
2019-03-30T05:20:36.691Z,95821.56
2019-03-30T05:23:03.352Z,95826.63
2019-03-30T05:25:30.003Z,95823.41
2019-03-30T05:27:56.652Z,95818.77
2019-03-30T05:30:23.334Z,95821.57
2019-03-30T05:33:04.622Z,95820.05
2019-03-30T05:35:16.774Z,95824.11
2019-03-30T05:37:43.406Z,95822.34
2019-03-30T05:40:10.089Z,95817.94
2019-03-30T05:42:36.730Z,95821.99
2019-03-30T05:45:03.377Z,95826.19
2019-03-30T05:47:30.022Z,95824.69
2019-03-30T05:49:56.746Z,95820.52
2019-03-30T05:52:26.830Z,95819.00
2019-03-30T05:54:50.022Z,95820.66
2019-03-30T05:57:16.672Z,95817.73
2019-03-30T05:59:43.370Z,95805.38
2019-03-30T06:02:10.086Z,95807.90
2019-03-30T06:04:36.744Z,95807.16
2019-03-30T06:07:03.419Z,95805.14
2019-03-30T06:09:30.047Z,95802.66
2019-03-30T06:11:56.720Z,95794.95
2019-03-30T06:14:23.326Z,95786.60
2019-03-30T06:16:49.962Z,95789.38
2019-03-30T06:19:16.610Z,95789.75
2019-03-30T06:21:43.254Z,95786.36
2019-03-30T06:24:09.940Z,95778.52
2019-03-30T06:26:36.589Z,95788.13
2019-03-30T06:29:03.251Z,95788.23
2019-03-30T06:31:29.903Z,95782.42
2019-03-30T06:33:56.579Z,95781.55
2019-03-30T06:36:23.217Z,95780.77
2019-03-30T06:38:49.914Z,95779.02
2019-03-30T06:41:16.585Z,95784.70
2019-03-30T06:43:43.230Z,95787.85
2019-03-30T06:46:09.920Z,95781.51
2019-03-30T06:48:36.559Z,95781.27
2019-03-30T06:51:03.201Z,95789.09
2019-03-30T06:53:29.856Z,95788.20
2019-03-30T06:55:56.498Z,95795.74
2019-03-30T06:58:23.133Z,95784.67
2019-03-30T07:00:49.785Z,95790.74
2019-03-30T07:03:16.523Z,95792.26
2019-03-30T07:05:43.175Z,95789.46
2019-03-30T07:08:09.811Z,95792.07
2019-03-30T07:10:38.370Z,95793.59
2019-03-30T07:13:03.134Z,95799.44
2019-03-30T07:15:29.774Z,95798.03
2019-03-30T07:17:56.425Z,95800.02
2019-03-30T07:20:23.069Z,95800.38
2019-03-30T07:22:51.232Z,95796.95
2019-03-30T07:25:16.357Z,95793.94
2019-03-30T07:27:42.996Z,95801.00
2019-03-30T07:30:09.654Z,95801.49
2019-03-30T07:32:36.324Z,95795.52
2019-03-30T07:35:02.967Z,95786.27
2019-03-30T07:37:29.616Z,95791.16
2019-03-30T07:39:56.275Z,95790.77
2019-03-30T07:42:22.957Z,95793.16
2019-03-30T07:44:49.612Z,95786.33
2019-03-30T07:47:16.285Z,95784.20
2019-03-30T07:49:42.970Z,95790.61
2019-03-30T07:52:09.630Z,95794.93
2019-03-30T07:54:36.363Z,95793.01
2019-03-30T07:57:06.218Z,95794.68
2019-03-30T07:59:29.728Z,95799.38
2019-03-30T08:01:56.367Z,95790.77
2019-03-30T08:04:23.046Z,95795.73
2019-03-30T08:06:49.816Z,95796.37
2019-03-30T08:09:16.520Z,95793.47
2019-03-30T08:11:43.164Z,95792.34
2019-03-30T08:14:09.801Z,95790.94
2019-03-30T08:16:36.495Z,95794.50
2019-03-30T08:19:03.184Z,95785.03
2019-03-30T08:21:29.820Z,95792.88
2019-03-30T08:23:56.458Z,95786.17
2019-03-30T08:26:23.104Z,95794.52
2019-03-30T08:28:49.740Z,95792.62
2019-03-30T08:31:16.380Z,95786.55
2019-03-30T08:33:43.016Z,95777.47
2019-03-30T08:36:09.654Z,95781.51
2019-03-30T08:38:36.341Z,95782.65
2019-03-30T08:41:02.986Z,95776.33
2019-03-30T08:43:29.637Z,95773.30
2019-03-30T08:45:56.321Z,95772.39
2019-03-30T08:48:22.974Z,95765.56
2019-03-30T08:50:49.623Z,95766.56
2019-03-30T08:53:16.303Z,95762.25
2019-03-30T08:55:42.981Z,95758.55
2019-03-30T08:58:09.615Z,95755.78
2019-03-30T09:00:36.444Z,95754.50
2019-03-30T09:03:03.085Z,95750.58
2019-03-30T09:05:29.762Z,95751.30
2019-03-30T09:07:56.404Z,95753.05
2019-03-30T09:10:23.184Z,95742.02
2019-03-30T09:12:49.832Z,95740.09
2019-03-30T09:15:16.470Z,95739.56
2019-03-30T09:17:43.120Z,95739.29
2019-03-30T09:20:09.766Z,95735.39
2019-03-30T09:22:36.416Z,95733.86
2019-03-30T09:25:03.104Z,95738.92
2019-03-30T09:27:29.747Z,95742.59
2019-03-30T09:29:56.432Z,95731.45
2019-03-30T09:32:23.075Z,95737.02
2019-03-30T09:34:49.713Z,95737.80
2019-03-30T09:37:16.362Z,95726.41
2019-03-30T09:39:43.003Z,95719.83
2019-03-30T09:42:09.762Z,95724.63
2019-03-30T09:44:36.401Z,95722.61
2019-03-30T09:47:03.053Z,95721.62
2019-03-30T09:49:29.729Z,95722.28
2019-03-30T09:51:56.418Z,95714.30
2019-03-30T09:54:24.285Z,95716.94
2019-03-30T09:56:49.759Z,95715.92
2019-03-30T09:59:16.403Z,95707.09
2019-03-30T10:01:43.049Z,95696.59
2019-03-30T10:04:09.708Z,95697.63
2019-03-30T10:06:36.359Z,95704.20
2019-03-30T10:09:03.004Z,95696.44
2019-03-30T10:11:29.675Z,95689.09
2019-03-30T10:13:56.302Z,95687.58
2019-03-30T10:16:22.948Z,95684.06
2019-03-30T10:18:49.585Z,95688.59
2019-03-30T10:21:16.236Z,95681.63
2019-03-30T10:23:42.874Z,95673.38
2019-03-30T10:26:09.566Z,95672.84
2019-03-30T10:28:36.205Z,95667.94
2019-03-30T10:31:02.859Z,95671.84
2019-03-30T10:33:29.490Z,95663.61
2019-03-30T10:35:56.181Z,95662.38
2019-03-30T10:38:22.838Z,95652.47
2019-03-30T10:40:49.696Z,95654.25
2019-03-30T10:43:16.406Z,95646.12
2019-03-30T10:45:43.061Z,95629.53
2019-03-30T10:48:09.793Z,95625.08
2019-03-30T10:50:36.436Z,95635.14
2019-03-30T10:53:03.087Z,95641.03
2019-03-30T10:55:29.715Z,95642.11
2019-03-30T10:57:58.609Z,95633.84
2019-03-30T11:00:23.059Z,95635.23
2019-03-30T11:02:49.744Z,95626.34
2019-03-30T11:05:16.391Z,95616.05
2019-03-30T11:07:43.039Z,95609.42
2019-03-30T11:10:09.678Z,95609.55
2019-03-30T11:12:36.311Z,95610.66
2019-03-30T11:15:02.971Z,95606.98
2019-03-30T11:17:29.608Z,95599.22
2019-03-30T11:19:56.288Z,95590.73
2019-03-30T11:22:22.926Z,95582.47
2019-03-30T11:24:49.607Z,95588.41
2019-03-30T11:27:16.287Z,95578.88
2019-03-30T11:29:42.970Z,95578.41
2019-03-30T11:32:09.608Z,95576.59
2019-03-30T11:34:36.287Z,95578.11
2019-03-30T11:37:02.935Z,95569.12
2019-03-30T11:39:29.558Z,95564.55
2019-03-30T11:41:56.231Z,95567.59
2019-03-30T11:44:22.872Z,95568.36
2019-03-30T11:46:49.510Z,95563.55
2019-03-30T11:49:16.160Z,95555.73
2019-03-30T11:51:42.804Z,95558.90
2019-03-30T11:54:09.435Z,95559.91
2019-03-30T11:56:36.113Z,95554.17
2019-03-30T11:59:02.802Z,95552.78
2019-03-30T12:01:29.489Z,95546.70
2019-03-30T12:03:56.132Z,95547.20
2019-03-30T12:06:22.834Z,95533.56
2019-03-30T12:08:49.516Z,95538.84
2019-03-30T12:11:16.169Z,95533.73
2019-03-30T12:13:42.889Z,95540.45
2019-03-30T12:16:09.523Z,95540.88
2019-03-30T12:18:36.227Z,95532.38
2019-03-30T12:21:02.873Z,95523.14
2019-03-30T12:23:29.523Z,95522.84
2019-03-30T12:25:56.161Z,95522.51
2019-03-30T12:28:22.858Z,95521.66
2019-03-30T12:30:49.647Z,95514.05
2019-03-30T12:33:16.267Z,95515.33
2019-03-30T12:35:42.935Z,95509.41
2019-03-30T12:38:09.580Z,95511.28
2019-03-30T12:40:36.227Z,95491.52
2019-03-30T12:43:02.894Z,95497.42
2019-03-30T12:45:29.566Z,95502.45
2019-03-30T12:47:56.211Z,95497.77
2019-03-30T12:50:22.875Z,95502.19
2019-03-30T12:52:49.521Z,95498.52
2019-03-30T12:55:16.232Z,95486.88
2019-03-30T12:57:42.927Z,95485.64
2019-03-30T13:00:09.565Z,95480.28
2019-03-30T13:02:36.212Z,95480.08
2019-03-30T13:05:02.861Z,95476.53
2019-03-30T13:07:29.537Z,95477.92
2019-03-30T13:09:56.191Z,95484.89
2019-03-30T13:12:22.843Z,95475.25
2019-03-30T13:14:49.487Z,95472.60
2019-03-30T13:17:16.178Z,95471.33
2019-03-30T13:19:42.844Z,95475.64
2019-03-30T13:22:09.473Z,95473.52
2019-03-30T13:24:36.121Z,95476.31
2019-03-30T13:27:02.756Z,95473.87
2019-03-30T13:29:29.442Z,95474.92
2019-03-30T13:31:56.077Z,95468.34
2019-03-30T13:34:22.740Z,95469.86
2019-03-30T13:36:49.378Z,95466.56
2019-03-30T13:39:16.892Z,95465.68
2019-03-30T13:41:43.537Z,95476.66
2019-03-30T13:44:10.364Z,95461.50
2019-03-30T13:46:37.027Z,95461.62
2019-03-30T13:49:03.656Z,95457.95
2019-03-30T13:51:30.345Z,95460.24
2019-03-30T13:53:56.985Z,95459.73
2019-03-30T13:56:23.623Z,95460.15
2019-03-30T13:58:50.280Z,95461.38
2019-03-30T14:01:16.919Z,95456.06
2019-03-30T14:03:43.620Z,95457.84
2019-03-30T14:06:10.261Z,95456.44
2019-03-30T14:08:36.909Z,95456.98
2019-03-30T14:11:03.546Z,95454.45
2019-03-30T14:13:30.248Z,95453.44
2019-03-30T14:15:56.932Z,95453.31
2019-03-30T14:18:23.573Z,95450.91
2019-03-30T14:20:50.315Z,95448.37
2019-03-30T14:23:16.953Z,95452.30
2019-03-30T14:25:43.647Z,95450.95
2019-03-30T14:28:10.291Z,95445.59
2019-03-30T14:30:36.932Z,95448.29
2019-03-30T14:33:03.644Z,95446.23
2019-03-30T14:35:30.359Z,95451.47
2019-03-30T14:37:57.113Z,95451.33
2019-03-30T14:40:23.755Z,95455.92
2019-03-30T14:42:50.488Z,95448.96
2019-03-30T14:45:17.143Z,95445.94
2019-03-30T14:47:43.833Z,95453.66
2019-03-30T14:50:10.479Z,95451.13
2019-03-30T14:52:37.141Z,95453.78
2019-03-30T14:55:03.780Z,95453.83
2019-03-30T14:57:30.431Z,95446.35
2019-03-30T14:59:57.127Z,95456.10
2019-03-30T15:02:23.820Z,95455.09
2019-03-30T15:04:50.465Z,95457.48
2019-03-30T15:07:17.144Z,95447.62
2019-03-30T15:09:43.788Z,95452.63
2019-03-30T15:12:10.462Z,95457.31
2019-03-30T15:14:37.115Z,95453.64
2019-03-30T15:17:03.743Z,95456.81
2019-03-30T15:19:30.388Z,95454.66
2019-03-30T15:21:57.066Z,95456.77
2019-03-30T15:24:23.739Z,95454.36
2019-03-30T15:26:59.777Z,95455.89
2019-03-30T15:29:17.044Z,95458.54
2019-03-30T15:31:43.692Z,95461.08
2019-03-30T15:34:10.387Z,95452.21
2019-03-30T15:36:37.075Z,95461.95
2019-03-30T15:39:03.756Z,95460.22
2019-03-30T15:41:30.420Z,95458.67
2019-03-30T15:43:57.067Z,95457.02
2019-03-30T15:46:23.710Z,95454.23
2019-03-30T15:48:50.395Z,95463.09
2019-03-30T15:51:17.110Z,95463.09
2019-03-30T15:53:43.832Z,95460.10
2019-03-30T15:56:10.514Z,95461.75
2019-03-30T15:58:37.197Z,95459.47
2019-03-30T16:01:03.842Z,95457.07
2019-03-30T16:03:30.526Z,95463.66
2019-03-30T16:05:57.218Z,95466.47
2019-03-30T16:08:23.851Z,95462.71
2019-03-30T16:10:52.322Z,95462.97
2019-03-30T16:13:17.128Z,95467.02
2019-03-30T16:15:44.729Z,95467.94
2019-03-30T16:18:10.430Z,95466.16
2019-03-30T16:20:37.080Z,95472.78
2019-03-30T16:23:03.760Z,95466.70
2019-03-30T16:25:30.400Z,95473.55
2019-03-30T16:27:57.040Z,95469.49
2019-03-30T16:30:23.743Z,95473.32
2019-03-30T16:32:50.376Z,95476.61
2019-03-30T16:35:17.062Z,95476.23
2019-03-30T16:37:43.705Z,95476.77
2019-03-30T16:40:10.355Z,95477.41
2019-03-30T16:42:36.987Z,95478.92
2019-03-30T16:45:03.680Z,95478.92
2019-03-30T16:47:30.325Z,95478.20
2019-03-30T16:49:56.966Z,95478.95
2019-03-30T16:52:23.658Z,95478.20
2019-03-30T16:54:50.399Z,95486.20
2019-03-30T16:57:16.959Z,95483.77
2019-03-30T16:59:43.633Z,95483.41
2019-03-30T17:02:10.312Z,95482.02
2019-03-30T17:04:36.924Z,95479.14
2019-03-30T17:07:03.558Z,95480.16
2019-03-30T17:09:30.201Z,95476.49
2019-03-30T17:11:56.840Z,95481.55
2019-03-30T17:14:23.483Z,95484.62
2019-03-30T17:16:50.117Z,95483.86
2019-03-30T17:19:16.799Z,95486.77
2019-03-30T17:21:43.433Z,95485.66
2019-03-30T17:24:10.094Z,95486.02
2019-03-30T17:26:36.730Z,95486.05
2019-03-30T17:29:03.402Z,95484.14
2019-03-30T17:31:30.084Z,95485.95
2019-03-30T17:33:56.757Z,95483.67
2019-03-30T17:36:23.398Z,95484.30
2019-03-30T17:38:50.150Z,95490.75
2019-03-30T17:41:16.759Z,95492.52
2019-03-30T17:43:46.432Z,95497.70
2019-03-30T17:46:13.070Z,95503.27
2019-03-30T17:48:39.708Z,95504.31
2019-03-30T17:51:06.387Z,95504.82
2019-03-30T17:53:33.039Z,95498.52
2019-03-30T17:56:01.910Z,95499.28
2019-03-30T17:58:26.336Z,95501.94
2019-03-30T18:00:52.992Z,95506.49
2019-03-30T18:03:19.623Z,95502.09
2019-03-30T18:05:46.310Z,95495.14
2019-03-30T18:08:12.961Z,95496.66
2019-03-30T18:10:39.696Z,95493.37
2019-03-30T18:13:06.331Z,95496.31
2019-03-30T18:15:34.652Z,95500.73
2019-03-30T18:17:59.707Z,95503.89
2019-03-30T18:20:26.448Z,95494.53
2019-03-30T18:22:53.202Z,95494.56
2019-03-30T18:25:19.900Z,95499.22
2019-03-30T18:27:46.547Z,95501.39
2019-03-30T18:30:13.233Z,95499.49
2019-03-30T18:32:39.897Z,95501.04
2019-03-30T18:35:06.549Z,95496.87
2019-03-30T18:37:33.252Z,95505.72
2019-03-30T18:39:59.891Z,95507.27
2019-03-30T18:42:26.530Z,95506.63
2019-03-30T18:44:53.192Z,95504.13
2019-03-30T18:47:19.844Z,95505.61
2019-03-30T18:49:46.481Z,95510.31
2019-03-30T18:52:13.117Z,95514.77
2019-03-30T18:54:39.773Z,95516.81
2019-03-30T18:57:06.408Z,95516.30
2019-03-30T18:59:33.095Z,95525.16
2019-03-30T19:01:59.740Z,95524.39
2019-03-30T19:04:26.387Z,95516.45
2019-03-30T19:06:53.045Z,95520.75
2019-03-30T19:09:19.679Z,95521.50
2019-03-30T19:11:46.354Z,95516.60
2019-03-30T19:14:13.005Z,95518.14
2019-03-30T19:16:39.725Z,95518.55
2019-03-30T19:19:06.374Z,95523.20
2019-03-30T19:21:33.205Z,95522.97
2019-03-30T19:23:59.848Z,95526.10
2019-03-30T19:26:26.530Z,95521.45
2019-03-30T19:28:56.534Z,95515.91
2019-03-30T19:31:19.829Z,95525.01
2019-03-30T19:33:46.506Z,95525.41
2019-03-30T19:36:13.192Z,95527.80
2019-03-30T19:38:39.841Z,95522.27
2019-03-30T19:41:06.525Z,95525.42
2019-03-30T19:43:33.175Z,95528.12
2019-03-30T19:45:59.818Z,95530.12
2019-03-30T19:48:26.503Z,95540.25
2019-03-30T19:50:53.137Z,95534.08
2019-03-30T19:53:19.811Z,95536.73
2019-03-30T19:55:46.493Z,95536.59
2019-03-30T19:58:13.145Z,95538.88
2019-03-30T20:00:39.841Z,95528.13
2019-03-30T20:03:06.523Z,95532.31
2019-03-30T20:05:33.170Z,95534.48
2019-03-30T20:08:11.532Z,95535.88
2019-03-30T20:10:26.506Z,95538.77
2019-03-30T20:12:53.269Z,95539.66
2019-03-30T20:15:19.917Z,95537.53
2019-03-30T20:17:46.560Z,95534.00
2019-03-30T20:20:13.253Z,95533.38
2019-03-30T20:22:39.949Z,95531.36
2019-03-30T20:25:06.598Z,95531.36
2019-03-30T20:27:33.243Z,95527.47
2019-03-30T20:29:59.892Z,95521.80
2019-03-30T20:32:26.584Z,95512.94
2019-03-30T20:34:53.234Z,95514.11
2019-03-30T20:37:19.885Z,95514.47
2019-03-30T20:39:46.642Z,95521.92
2019-03-30T20:42:13.285Z,95522.70
2019-03-30T20:44:39.930Z,95526.60
2019-03-30T20:47:06.625Z,95522.55
2019-03-30T20:49:33.285Z,95518.78
2019-03-30T20:51:59.921Z,95522.19
2019-03-30T20:54:26.616Z,95518.17
2019-03-30T20:56:53.303Z,95515.12
2019-03-30T20:59:19.982Z,95517.11
2019-03-30T21:01:46.621Z,95517.38
2019-03-30T21:04:13.339Z,95518.39
2019-03-30T21:06:40.004Z,95510.95
2019-03-30T21:09:06.678Z,95509.69
2019-03-30T21:11:33.361Z,95508.67
2019-03-30T21:14:00.020Z,95505.16
2019-03-30T21:16:26.706Z,95507.17
2019-03-30T21:18:53.375Z,95506.55
2019-03-30T21:21:20.016Z,95505.56
2019-03-30T21:23:46.672Z,95504.94
2019-03-30T21:26:13.322Z,95496.23
2019-03-30T21:28:39.964Z,95495.20
2019-03-30T21:31:06.610Z,95503.80
2019-03-30T21:33:33.306Z,95507.45
2019-03-30T21:35:59.938Z,95507.34
2019-03-30T21:38:26.581Z,95498.39
2019-03-30T21:40:53.254Z,95503.32
2019-03-30T21:43:19.940Z,95496.75
2019-03-30T21:45:46.567Z,95495.86
2019-03-30T21:48:13.206Z,95496.63
2019-03-30T21:50:39.856Z,95491.57
2019-03-30T21:53:06.544Z,95495.38
2019-03-30T21:55:33.194Z,95495.50
2019-03-30T21:57:59.834Z,95492.70
2019-03-30T22:00:26.518Z,95492.72
2019-03-30T22:02:53.147Z,95490.34
2019-03-30T22:05:19.793Z,95485.16
2019-03-30T22:07:46.459Z,95481.75
2019-03-30T22:10:13.110Z,95486.20
2019-03-30T22:12:39.816Z,95479.75
2019-03-30T22:15:06.470Z,95483.02
2019-03-30T22:17:33.123Z,95476.61
2019-03-30T22:19:59.765Z,95477.36
2019-03-30T22:22:26.462Z,95478.13
2019-03-30T22:24:53.092Z,95477.48
2019-03-30T22:27:19.787Z,95476.36
2019-03-30T22:29:46.521Z,95476.23
2019-03-30T22:32:13.089Z,95476.23
2019-03-30T22:34:39.732Z,95464.13
2019-03-30T22:37:06.448Z,95472.22
2019-03-30T22:39:33.093Z,95476.89
2019-03-30T22:41:59.737Z,95472.98
2019-03-30T22:44:26.389Z,95480.94
2019-03-30T22:46:53.030Z,95470.33
2019-03-30T22:49:19.667Z,95467.95
2019-03-30T22:51:46.414Z,95467.57
2019-03-30T22:54:13.051Z,95477.66
2019-03-30T22:56:39.694Z,95477.90
2019-03-30T22:59:06.333Z,95474.76
2019-03-30T23:01:32.969Z,95477.19
2019-03-30T23:03:59.652Z,95475.69
2019-03-30T23:06:26.289Z,95469.89
2019-03-30T23:08:52.927Z,95464.07
2019-03-30T23:11:19.602Z,95455.39
2019-03-30T23:13:46.286Z,95456.13
2019-03-30T23:16:12.920Z,95451.08
2019-03-30T23:18:39.574Z,95446.42
2019-03-30T23:21:06.218Z,95448.67
2019-03-30T23:23:32.892Z,95446.69
2019-03-30T23:25:59.539Z,95439.11
2019-03-30T23:28:26.193Z,95436.45
2019-03-30T23:30:54.655Z,95433.43
2019-03-30T23:33:19.499Z,95434.95
2019-03-30T23:35:46.136Z,95436.34
2019-03-30T23:38:12.810Z,95434.58
2019-03-30T23:40:39.445Z,95434.56
2019-03-30T23:43:06.092Z,95433.19
2019-03-30T23:45:32.768Z,95433.67
2019-03-30T23:47:59.435Z,95421.20
2019-03-30T23:50:26.116Z,95420.70
2019-03-30T23:52:52.776Z,95417.94
2019-03-30T23:55:19.415Z,95423.60
2019-03-30T23:57:46.115Z,95419.08
